sensor_id;sensor_type;location;lat;lon;timestamp;pressure;altitude;pressure_sealevel;temperature;humidity
38227;BME280;24026;49.446;8.576;2023-03-14T00:01:30;98754.75;;;15.00;61.00
38227;BME280;24026;49.446;8.576;2023-03-14T00:03:50;98757.72;;;14.99;61.00
38227;BME280;24026;49.446;8.576;2023-03-14T00:06:11;98750.78;;;14.98;60.78
38227;BME280;24026;49.446;8.576;2023-03-14T00:08:32;98771.72;;;14.96;60.94
38227;BME280;24026;49.446;8.576;2023-03-14T00:10:53;98766.69;;;14.94;60.93
38227;BME280;24026;49.446;8.576;2023-03-14T00:13:13;98766.69;;;14.94;60.89
38227;BME280;24026;49.446;8.576;2023-03-14T00:15:34;98764.00;;;14.94;60.66
38227;BME280;24026;49.446;8.576;2023-03-14T00:17:54;98757.41;;;14.92;60.81
38227;BME280;24026;49.446;8.576;2023-03-14T00:20:15;98745.91;;;14.91;61.14
38227;BME280;24026;49.446;8.576;2023-03-14T00:22:35;98752.84;;;14.92;60.68
38227;BME280;24026;49.446;8.576;2023-03-14T00:24:56;98756.91;;;14.90;60.66
38227;BME280;24026;49.446;8.576;2023-03-14T00:27:16;98749.19;;;14.88;60.61
38227;BME280;24026;49.446;8.576;2023-03-14T00:29:37;98748.88;;;14.90;60.75
38227;BME280;24026;49.446;8.576;2023-03-14T00:31:57;98745.41;;;14.89;60.67
38227;BME280;24026;49.446;8.576;2023-03-14T00:34:17;98742.28;;;14.87;60.75
38227;BME280;24026;49.446;8.576;2023-03-14T00:36:38;98745.41;;;14.89;60.63
38227;BME280;24026;49.446;8.576;2023-03-14T00:38:58;98735.03;;;14.88;60.59
38227;BME280;24026;49.446;8.576;2023-03-14T00:41:21;98734.25;;;14.87;60.63
38227;BME280;24026;49.446;8.576;2023-03-14T00:43:45;98736.13;;;14.87;60.48
38227;BME280;24026;49.446;8.576;2023-03-14T00:46:07;98730.75;;;14.87;60.69
38227;BME280;24026;49.446;8.576;2023-03-14T00:48:28;98734.56;;;14.86;60.58
38227;BME280;24026;49.446;8.576;2023-03-14T00:50:48;98721.50;;;14.84;60.69
38227;BME280;24026;49.446;8.576;2023-03-14T00:53:09;98723.38;;;14.84;60.61
38227;BME280;24026;49.446;8.576;2023-03-14T00:55:30;98730.28;;;14.85;60.45
38227;BME280;24026;49.446;8.576;2023-03-14T00:57:50;98731.22;;;14.80;60.61
38227;BME280;24026;49.446;8.576;2023-03-14T01:00:11;98732.03;;;14.80;60.51
38227;BME280;24026;49.446;8.576;2023-03-14T01:02:32;98734.22;;;14.78;60.71
38227;BME280;24026;49.446;8.576;2023-03-14T01:04:53;98727.59;;;14.76;60.64
38227;BME280;24026;49.446;8.576;2023-03-14T01:07:13;98738.94;;;14.81;60.49
38227;BME280;24026;49.446;8.576;2023-03-14T01:09:33;98739.88;;;14.77;60.39
38227;BME280;24026;49.446;8.576;2023-03-14T01:11:54;98739.88;;;14.77;60.60
38227;BME280;24026;49.446;8.576;2023-03-14T01:14:14;98740.78;;;14.72;60.82
38227;BME280;24026;49.446;8.576;2023-03-14T01:16:35;98737.69;;;14.79;60.66
38227;BME280;24026;49.446;8.576;2023-03-14T01:18:56;98731.56;;;14.78;60.37
38227;BME280;24026;49.446;8.576;2023-03-14T01:21:27;98726.00;;;14.75;60.75
38227;BME280;24026;49.446;8.576;2023-03-14T01:23:48;98717.81;;;14.71;60.24
38227;BME280;24026;49.446;8.576;2023-03-14T01:26:11;98718.94;;;14.70;60.67
38227;BME280;24026;49.446;8.576;2023-03-14T01:28:31;98715.16;;;14.71;60.60
38227;BME280;24026;49.446;8.576;2023-03-14T01:30:52;98722.09;;;14.72;60.53
38227;BME280;24026;49.446;8.576;2023-03-14T01:33:12;98701.31;;;14.69;60.62
38227;BME280;24026;49.446;8.576;2023-03-14T01:35:34;98696.25;;;14.68;60.74
38227;BME280;24026;49.446;8.576;2023-03-14T01:37:54;98699.72;;;14.68;60.64
38227;BME280;24026;49.446;8.576;2023-03-14T01:40:15;98704.59;;;14.66;60.53
38227;BME280;24026;49.446;8.576;2023-03-14T01:42:37;98685.72;;;14.62;60.78
38227;BME280;24026;49.446;8.576;2023-03-14T01:45:00;98682.41;;;14.66;60.86
38227;BME280;24026;49.446;8.576;2023-03-14T01:47:21;98688.25;;;14.68;60.49
38227;BME280;24026;49.446;8.576;2023-03-14T01:49:42;98685.41;;;14.64;60.72
38227;BME280;24026;49.446;8.576;2023-03-14T01:52:10;98682.72;;;14.64;60.58
38227;BME280;24026;49.446;8.576;2023-03-14T01:54:35;98674.53;;;14.60;60.64
38227;BME280;24026;49.446;8.576;2023-03-14T01:57:03;98674.53;;;14.60;60.68
38227;BME280;24026;49.446;8.576;2023-03-14T01:59:25;98662.72;;;14.61;60.53
38227;BME280;24026;49.446;8.576;2023-03-14T02:01:47;98660.38;;;14.60;60.75
38227;BME280;24026;49.446;8.576;2023-03-14T02:04:10;98658.19;;;14.62;60.52
38227;BME280;24026;49.446;8.576;2023-03-14T02:07:02;98647.41;;;14.53;60.85
38227;BME280;24026;49.446;8.576;2023-03-14T02:09:24;98639.28;;;14.58;60.61
38227;BME280;24026;49.446;8.576;2023-03-14T02:11:45;98633.94;;;14.58;60.79
38227;BME280;24026;49.446;8.576;2023-03-14T02:14:07;98639.28;;;14.58;60.63
38227;BME280;24026;49.446;8.576;2023-03-14T02:16:34;98629.69;;;14.57;60.78
38227;BME280;24026;49.446;8.576;2023-03-14T02:18:55;98623.25;;;14.58;60.66
38227;BME280;24026;49.446;8.576;2023-03-14T02:24:14;98627.63;;;14.54;60.75
38227;BME280;24026;49.446;8.576;2023-03-14T02:27:04;98624.31;;;14.49;60.81
38227;BME280;24026;49.446;8.576;2023-03-14T02:29:25;98626.19;;;14.48;60.86
38227;BME280;24026;49.446;8.576;2023-03-14T02:31:46;98622.72;;;14.48;60.82
38227;BME280;24026;49.446;8.576;2023-03-14T02:34:06;98612.19;;;14.51;60.69
38227;BME280;24026;49.446;8.576;2023-03-14T02:36:27;98619.28;;;14.47;60.48
38227;BME280;24026;49.446;8.576;2023-03-14T02:41:31;98604.47;;;14.50;60.58
38227;BME280;24026;49.446;8.576;2023-03-14T02:43:52;98596.78;;;14.48;60.65
38227;BME280;24026;49.446;8.576;2023-03-14T02:46:14;98598.50;;;14.44;60.76
38227;BME280;24026;49.446;8.576;2023-03-14T02:48:41;98591.75;;;14.46;60.71
38227;BME280;24026;49.446;8.576;2023-03-14T02:51:04;98593.63;;;14.46;60.72
38227;BME280;24026;49.446;8.576;2023-03-14T02:53:32;98605.09;;;14.46;60.47
38227;BME280;24026;49.446;8.576;2023-03-14T02:55:53;98596.31;;;14.46;60.93
38227;BME280;24026;49.446;8.576;2023-03-14T02:58:14;98596.63;;;14.44;60.56
38227;BME280;24026;49.446;8.576;2023-03-14T03:00:34;98601.19;;;14.44;60.65
38227;BME280;24026;49.446;8.576;2023-03-14T03:02:55;98585.75;;;14.41;60.71
38227;BME280;24026;49.446;8.576;2023-03-14T03:05:15;98583.22;;;14.36;61.02
38227;BME280;24026;49.446;8.576;2023-03-14T03:07:36;98582.16;;;14.37;60.87
38227;BME280;24026;49.446;8.576;2023-03-14T03:09:56;98588.44;;;14.41;60.89
38227;BME280;24026;49.446;8.576;2023-03-14T03:12:17;98586.38;;;14.38;60.82
38227;BME280;24026;49.446;8.576;2023-03-14T03:14:37;98588.13;;;14.42;60.82
38227;BME280;24026;49.446;8.576;2023-03-14T03:16:58;98585.75;;;14.41;60.67
38227;BME280;24026;49.446;8.576;2023-03-14T03:19:18;98586.06;;;14.39;60.60
38227;BME280;24026;49.446;8.576;2023-03-14T03:21:39;98575.38;;;14.39;60.72
38227;BME280;24026;49.446;8.576;2023-03-14T03:24:00;98573.47;;;14.40;60.72
38227;BME280;24026;49.446;8.576;2023-03-14T03:26:20;98565.81;;;14.38;60.77
38227;BME280;24026;49.446;8.576;2023-03-14T03:28:40;98558.09;;;14.37;60.62
38227;BME280;24026;49.446;8.576;2023-03-14T03:31:09;98550.06;;;14.37;60.87
38227;BME280;24026;49.446;8.576;2023-03-14T03:33:29;98540.94;;;14.38;60.84
38227;BME280;24026;49.446;8.576;2023-03-14T03:35:50;98538.56;;;14.36;60.63
38227;BME280;24026;49.446;8.576;2023-03-14T03:38:11;98531.69;;;14.35;60.73
38227;BME280;24026;49.446;8.576;2023-03-14T03:40:32;98527.13;;;14.36;60.79
38227;BME280;24026;49.446;8.576;2023-03-14T03:42:52;98511.84;;;14.36;60.93
38227;BME280;24026;49.446;8.576;2023-03-14T03:45:12;98518.00;;;14.37;60.96
38227;BME280;24026;49.446;8.576;2023-03-14T03:47:33;98519.56;;;14.38;60.77
38227;BME280;24026;49.446;8.576;2023-03-14T03:49:53;98512.34;;;14.38;60.63
38227;BME280;24026;49.446;8.576;2023-03-14T03:52:13;98514.84;;;14.35;60.55
38227;BME280;24026;49.446;8.576;2023-03-14T03:54:34;98512.16;;;14.35;60.69
38227;BME280;24026;49.446;8.576;2023-03-14T03:56:55;98507.63;;;14.35;60.77
38227;BME280;24026;49.446;8.576;2023-03-14T03:59:15;98509.50;;;14.35;60.33
38227;BME280;24026;49.446;8.576;2023-03-14T04:01:35;98498.81;;;14.35;60.56
38227;BME280;24026;49.446;8.576;2023-03-14T04:03:56;98507.63;;;14.35;60.39
38227;BME280;24026;49.446;8.576;2023-03-14T04:06:16;98521.00;;;14.35;60.37
38227;BME280;24026;49.446;8.576;2023-03-14T04:08:37;98527.72;;;14.33;60.48
38227;BME280;24026;49.446;8.576;2023-03-14T04:11:00;98526.94;;;14.32;60.36
38227;BME280;24026;49.446;8.576;2023-03-14T04:13:21;98518.16;;;14.32;60.17
38227;BME280;24026;49.446;8.576;2023-03-14T04:15:41;98522.69;;;14.31;60.33
38227;BME280;24026;49.446;8.576;2023-03-14T04:18:01;98516.25;;;14.32;60.31
38227;BME280;24026;49.446;8.576;2023-03-14T04:20:22;98519.72;;;14.33;60.22
38227;BME280;24026;49.446;8.576;2023-03-14T04:22:42;98515.47;;;14.32;60.38
38227;BME280;24026;49.446;8.576;2023-03-14T04:25:03;98507.47;;;14.32;60.33
38227;BME280;24026;49.446;8.576;2023-03-14T04:27:24;98509.03;;;14.33;60.23
38227;BME280;24026;49.446;8.576;2023-03-14T04:29:44;98504.78;;;14.32;59.98
38227;BME280;24026;49.446;8.576;2023-03-14T04:32:04;98497.09;;;14.30;60.20
38227;BME280;24026;49.446;8.576;2023-03-14T04:34:25;98498.63;;;14.31;60.32
38227;BME280;24026;49.446;8.576;2023-03-14T04:36:45;98486.41;;;14.30;60.06
38227;BME280;24026;49.446;8.576;2023-03-14T04:39:06;98488.25;;;14.30;60.17
38227;BME280;24026;49.446;8.576;2023-03-14T04:41:26;98491.25;;;14.28;60.17
38227;BME280;24026;49.446;8.576;2023-03-14T04:43:46;98489.38;;;14.29;60.25
38227;BME280;24026;49.446;8.576;2023-03-14T04:46:07;98478.69;;;14.29;60.18
38227;BME280;24026;49.446;8.576;2023-03-14T04:48:28;98482.91;;;14.30;60.16
38227;BME280;24026;49.446;8.576;2023-03-14T04:50:49;98484.03;;;14.29;59.97
38227;BME280;24026;49.446;8.576;2023-03-14T04:53:09;98477.88;;;14.28;60.01
38227;BME280;24026;49.446;8.576;2023-03-14T04:55:31;98477.88;;;14.28;59.94
38227;BME280;24026;49.446;8.576;2023-03-14T04:57:52;98477.41;;;14.26;59.91
38227;BME280;24026;49.446;8.576;2023-03-14T05:00:13;98477.41;;;14.26;59.93
38227;BME280;24026;49.446;8.576;2023-03-14T05:02:34;98484.34;;;14.27;59.81
38227;BME280;24026;49.446;8.576;2023-03-14T05:04:54;98483.06;;;14.24;59.98
38227;BME280;24026;49.446;8.576;2023-03-14T05:07:15;98488.88;;;14.26;60.07
38227;BME280;24026;49.446;8.576;2023-03-14T05:09:35;98484.66;;;14.25;59.85
38227;BME280;24026;49.446;8.576;2023-03-14T05:11:55;98481.97;;;14.25;59.73
38227;BME280;24026;49.446;8.576;2023-03-14T05:14:16;98475.06;;;14.24;59.72
38227;BME280;24026;49.446;8.576;2023-03-14T05:16:36;98475.88;;;14.25;59.81
38227;BME280;24026;49.446;8.576;2023-03-14T05:18:57;98476.16;;;14.23;59.76
38227;BME280;24026;49.446;8.576;2023-03-14T05:21:17;98470.81;;;14.23;59.70
38227;BME280;24026;49.446;8.576;2023-03-14T05:23:37;98470.81;;;14.23;59.62
38227;BME280;24026;49.446;8.576;2023-03-14T05:25:58;98470.03;;;14.23;59.65
38227;BME280;24026;49.446;8.576;2023-03-14T05:28:18;98469.25;;;14.22;59.55
38227;BME280;24026;49.446;8.576;2023-03-14T05:30:39;98472.38;;;14.24;59.42
38227;BME280;24026;49.446;8.576;2023-03-14T05:32:59;98476.94;;;14.24;59.54
38227;BME280;24026;49.446;8.576;2023-03-14T05:35:20;98472.69;;;14.23;59.48
38227;BME280;24026;49.446;8.576;2023-03-14T05:37:40;98474.91;;;14.21;59.55
38227;BME280;24026;49.446;8.576;2023-03-14T05:40:00;98468.47;;;14.22;59.34
38227;BME280;24026;49.446;8.576;2023-03-14T05:42:21;98474.91;;;14.21;59.26
38227;BME280;24026;49.446;8.576;2023-03-14T05:44:41;98474.91;;;14.21;59.25
38227;BME280;24026;49.446;8.576;2023-03-14T05:47:02;98476.78;;;14.20;59.17
38227;BME280;24026;49.446;8.576;2023-03-14T05:49:22;98477.09;;;14.19;59.20
38227;BME280;24026;49.446;8.576;2023-03-14T05:51:43;98468.78;;;14.20;59.07
38227;BME280;24026;49.446;8.576;2023-03-14T05:54:03;98459.16;;;14.19;59.22
38227;BME280;24026;49.446;8.576;2023-03-14T05:56:24;98459.94;;;14.20;59.10
38227;BME280;24026;49.446;8.576;2023-03-14T05:58:45;98453.81;;;14.19;59.09
38227;BME280;24026;49.446;8.576;2023-03-14T06:01:06;98457.28;;;14.20;58.93
38227;BME280;24026;49.446;8.576;2023-03-14T06:03:27;98458.09;;;14.20;59.08
38227;BME280;24026;49.446;8.576;2023-03-14T06:05:50;98452.75;;;14.20;58.91
38227;BME280;24026;49.446;8.576;2023-03-14T06:08:11;98463.13;;;14.22;58.75
38227;BME280;24026;49.446;8.576;2023-03-14T06:10:31;98459.50;;;14.26;58.71
38227;BME280;24026;49.446;8.576;2023-03-14T06:12:52;98459.19;;;14.28;58.55
38227;BME280;24026;49.446;8.576;2023-03-14T06:15:12;98456.81;;;14.26;58.55
38227;BME280;24026;49.446;8.576;2023-03-14T06:17:33;98453.97;;;14.23;58.71
38227;BME280;24026;49.446;8.576;2023-03-14T06:19:54;98458.41;;;14.27;58.52
38227;BME280;24026;49.446;8.576;2023-03-14T06:22:15;98452.75;;;14.29;58.62
38227;BME280;24026;49.446;8.576;2023-03-14T06:24:35;98458.56;;;14.31;58.36
38227;BME280;24026;49.446;8.576;2023-03-14T06:26:56;98453.53;;;14.30;58.36
38227;BME280;24026;49.446;8.576;2023-03-14T06:29:16;98456.19;;;14.21;58.90
38227;BME280;24026;49.446;8.576;2023-03-14T06:31:36;98457.78;;;14.22;59.43
38227;BME280;24026;49.446;8.576;2023-03-14T06:33:57;98454.75;;;14.15;58.75
38227;BME280;24026;49.446;8.576;2023-03-14T06:36:18;98442.22;;;14.15;58.23
38227;BME280;24026;49.446;8.576;2023-03-14T06:38:38;98448.63;;;14.05;58.27
38227;BME280;24026;49.446;8.576;2023-03-14T06:41:05;98453.50;;;14.12;58.33
38227;BME280;24026;49.446;8.576;2023-03-14T06:43:26;98449.25;;;14.20;58.30
38227;BME280;24026;49.446;8.576;2023-03-14T06:45:46;98453.97;;;14.23;58.22
38227;BME280;24026;49.446;8.576;2023-03-14T06:48:07;98448.34;;;14.24;58.13
38227;BME280;24026;49.446;8.576;2023-03-14T06:50:27;98449.91;;;14.25;58.08
38227;BME280;24026;49.446;8.576;2023-03-14T06:52:48;98446.94;;;14.27;58.03
38227;BME280;24026;49.446;8.576;2023-03-14T06:55:08;98448.19;;;14.30;58.12
38227;BME280;24026;49.446;8.576;2023-03-14T06:57:29;98443.34;;;14.32;57.90
38227;BME280;24026;49.446;8.576;2023-03-14T06:59:49;98449.16;;;14.34;57.98
38227;BME280;24026;49.446;8.576;2023-03-14T07:02:12;98442.69;;;14.35;58.11
38227;BME280;24026;49.446;8.576;2023-03-14T07:04:33;98444.56;;;14.34;58.10
38227;BME280;24026;49.446;8.576;2023-03-14T07:06:53;98445.03;;;14.36;58.14
38227;BME280;24026;49.446;8.576;2023-03-14T07:09:14;98448.22;;;14.38;58.77
38227;BME280;24026;49.446;8.576;2023-03-14T07:11:37;98450.06;;;14.38;58.19
38227;BME280;24026;49.446;8.576;2023-03-14T07:13:57;98453.56;;;14.38;58.61
38227;BME280;24026;49.446;8.576;2023-03-14T07:16:18;98461.06;;;14.36;58.86
38227;BME280;24026;49.446;8.576;2023-03-14T07:18:38;98455.56;;;14.41;58.51
38227;BME280;24026;49.446;8.576;2023-03-14T07:20:59;98467.06;;;14.42;58.60
38227;BME280;24026;49.446;8.576;2023-03-14T07:23:19;98462.81;;;14.41;58.71
38227;BME280;24026;49.446;8.576;2023-03-14T07:25:39;98462.50;;;14.42;58.72
38227;BME280;24026;49.446;8.576;2023-03-14T07:28:00;98463.78;;;14.45;58.60
38227;BME280;24026;49.446;8.576;2023-03-14T07:30:20;98458.09;;;14.46;58.45
38227;BME280;24026;49.446;8.576;2023-03-14T07:32:41;98465.03;;;14.48;58.20
38227;BME280;24026;49.446;8.576;2023-03-14T07:35:01;98479.16;;;14.48;58.42
38227;BME280;24026;49.446;8.576;2023-03-14T07:37:22;98471.16;;;14.48;58.36
38227;BME280;24026;49.446;8.576;2023-03-14T07:39:42;98474.63;;;14.49;58.21
38227;BME280;24026;49.446;8.576;2023-03-14T07:42:03;98470.53;;;14.51;57.81
38227;BME280;24026;49.446;8.576;2023-03-14T07:44:23;98465.19;;;14.51;57.86
38227;BME280;24026;49.446;8.576;2023-03-14T07:46:43;98469.91;;;14.54;57.93
38227;BME280;24026;49.446;8.576;2023-03-14T07:49:04;98468.00;;;14.55;57.96
38227;BME280;24026;49.446;8.576;2023-03-14T07:51:24;98467.69;;;14.56;57.66
38227;BME280;24026;49.446;8.576;2023-03-14T07:53:45;98460.47;;;14.57;57.45
38227;BME280;24026;49.446;8.576;2023-03-14T07:56:06;98458.91;;;14.56;57.90
38227;BME280;24026;49.446;8.576;2023-03-14T07:58:26;98457.81;;;14.57;57.88
38227;BME280;24026;49.446;8.576;2023-03-14T08:00:48;98468.50;;;14.57;58.22
38227;BME280;24026;49.446;8.576;2023-03-14T08:03:08;98454.81;;;14.58;57.88
38227;BME280;24026;49.446;8.576;2023-03-14T08:05:29;98453.72;;;14.59;57.69
38227;BME280;24026;49.446;8.576;2023-03-14T08:07:49;98442.53;;;14.57;57.73
38227;BME280;24026;49.446;8.576;2023-03-14T08:10:10;98449.47;;;14.58;57.72
38227;BME280;24026;49.446;8.576;2023-03-14T08:12:34;98452.16;;;14.58;57.96
38227;BME280;24026;49.446;8.576;2023-03-14T08:14:56;98451.84;;;14.60;57.80
38227;BME280;24026;49.446;8.576;2023-03-14T08:17:17;98449.16;;;14.60;57.90
38227;BME280;24026;49.446;8.576;2023-03-14T08:19:37;98451.53;;;14.61;57.71
38227;BME280;24026;49.446;8.576;2023-03-14T08:21:58;98458.16;;;14.64;57.84
38227;BME280;24026;49.446;8.576;2023-03-14T08:24:18;98457.38;;;14.63;57.80
38227;BME280;24026;49.446;8.576;2023-03-14T08:26:39;98462.88;;;14.67;57.72
38227;BME280;24026;49.446;8.576;2023-03-14T08:28:59;98459.38;;;14.67;58.45
38227;BME280;24026;49.446;8.576;2023-03-14T08:31:20;98467.41;;;14.67;58.66
38227;BME280;24026;49.446;8.576;2023-03-14T08:33:42;98468.22;;;14.67;57.89
38227;BME280;24026;49.446;8.576;2023-03-14T08:36:02;98464.91;;;14.70;57.54
38227;BME280;24026;49.446;8.576;2023-03-14T08:38:23;98474.19;;;14.73;57.57
38227;BME280;24026;49.446;8.576;2023-03-14T08:40:43;98482.34;;;14.76;57.38
38227;BME280;24026;49.446;8.576;2023-03-14T08:43:04;98482.50;;;14.80;57.38
38227;BME280;24026;49.446;8.576;2023-03-14T08:45:25;98484.88;;;14.81;57.16
38227;BME280;24026;49.446;8.576;2023-03-14T08:47:45;98489.13;;;14.82;57.47
38227;BME280;24026;49.446;8.576;2023-03-14T08:50:07;98489.59;;;14.85;57.27
38227;BME280;24026;49.446;8.576;2023-03-14T08:52:27;98494.63;;;14.86;56.85
38227;BME280;24026;49.446;8.576;2023-03-14T08:54:48;98497.00;;;14.88;57.16
38227;BME280;24026;49.446;8.576;2023-03-14T08:57:08;98506.75;;;14.84;57.02
38227;BME280;24026;49.446;8.576;2023-03-14T08:59:29;98502.81;;;14.90;56.66
38227;BME280;24026;49.446;8.576;2023-03-14T09:01:49;98499.03;;;14.91;57.22
38227;BME280;24026;49.446;8.576;2023-03-14T09:04:10;98512.88;;;14.93;56.51
38227;BME280;24026;49.446;8.576;2023-03-14T09:06:30;98510.19;;;14.93;56.67
38227;BME280;24026;49.446;8.576;2023-03-14T09:08:50;98502.94;;;14.93;56.70
38227;BME280;24026;49.446;8.576;2023-03-14T09:11:11;98504.53;;;14.94;56.69
38227;BME280;24026;49.446;8.576;2023-03-14T09:13:32;98506.59;;;14.97;56.71
38227;BME280;24026;49.446;8.576;2023-03-14T09:15:54;98509.41;;;15.01;56.48
38227;BME280;24026;49.446;8.576;2023-03-14T09:18:15;98515.84;;;15.00;56.46
38227;BME280;24026;49.446;8.576;2023-03-14T09:20:35;98508.66;;;14.92;57.84
38227;BME280;24026;49.446;8.576;2023-03-14T09:22:56;98507.22;;;14.94;58.00
38227;BME280;24026;49.446;8.576;2023-03-14T09:25:16;98509.09;;;14.94;56.83
38227;BME280;24026;49.446;8.576;2023-03-14T09:27:37;98509.56;;;14.96;56.30
38227;BME280;24026;49.446;8.576;2023-03-14T09:29:57;98509.72;;;14.99;56.61
38227;BME280;24026;49.446;8.576;2023-03-14T09:32:18;98511.63;;;14.99;56.78
38227;BME280;24026;49.446;8.576;2023-03-14T09:34:38;98511.78;;;15.03;56.67
38227;BME280;24026;49.446;8.576;2023-03-14T09:36:59;98507.69;;;15.05;56.44
38227;BME280;24026;49.446;8.576;2023-03-14T09:39:20;98505.94;;;15.09;56.32
38227;BME280;24026;49.446;8.576;2023-03-14T09:41:43;98509.72;;;15.08;56.24
38227;BME280;24026;49.446;8.576;2023-03-14T09:46:38;98512.06;;;15.10;56.54
38227;BME280;24026;49.446;8.576;2023-03-14T09:48:59;98494.94;;;15.11;56.50
38227;BME280;24026;49.446;8.576;2023-03-14T09:51:20;98521.19;;;15.00;56.70
38227;BME280;24026;49.446;8.576;2023-03-14T09:53:46;98494.94;;;15.02;56.94
38227;BME280;24026;49.446;8.576;2023-03-14T09:56:15;98492.72;;;15.04;57.38
38227;BME280;24026;49.446;8.576;2023-03-14T09:58:37;98516.97;;;14.99;57.10
38227;BME280;24026;49.446;8.576;2023-03-14T10:01:01;98506.75;;;15.01;57.36
38227;BME280;24026;49.446;8.576;2023-03-14T10:03:31;98504.22;;;15.05;56.97
38227;BME280;24026;49.446;8.576;2023-03-14T10:05:52;98513.03;;;15.14;56.81
38227;BME280;24026;49.446;8.576;2023-03-14T10:08:13;98511.44;;;15.13;57.15
38227;BME280;24026;49.446;8.576;2023-03-14T10:10:34;98503.09;;;15.14;56.57
38227;BME280;24026;49.446;8.576;2023-03-14T10:13:00;98513.50;;;15.16;56.39
38227;BME280;24026;49.446;8.576;2023-03-14T10:15:33;98514.75;;;15.18;56.04
38227;BME280;24026;49.446;8.576;2023-03-14T10:17:54;98502.63;;;15.21;56.20
38227;BME280;24026;49.446;8.576;2023-03-14T10:22:50;98504.53;;;15.21;56.56
38227;BME280;24026;49.446;8.576;2023-03-14T10:25:27;98507.97;;;15.21;56.55
38227;BME280;24026;49.446;8.576;2023-03-14T10:27:49;98514.75;;;15.27;56.59
38227;BME280;24026;49.446;8.576;2023-03-14T10:30:47;98506.56;;;15.24;56.53
38227;BME280;24026;49.446;8.576;2023-03-14T10:33:27;98504.66;;;15.24;56.58
38227;BME280;24026;49.446;8.576;2023-03-14T10:35:57;98504.81;;;15.28;56.35
38227;BME280;24026;49.446;8.576;2023-03-14T10:38:18;98504.50;;;15.29;56.48
38227;BME280;24026;49.446;8.576;2023-03-14T10:40:41;98520.25;;;15.31;56.70
38227;BME280;24026;49.446;8.576;2023-03-14T10:43:04;98522.31;;;15.25;57.07
38227;BME280;24026;49.446;8.576;2023-03-14T10:45:33;98513.63;;;15.28;57.10
38227;BME280;24026;49.446;8.576;2023-03-14T10:47:54;98525.13;;;15.29;57.29
38227;BME280;24026;49.446;8.576;2023-03-14T10:50:24;98516.47;;;15.23;57.04
38227;BME280;24026;49.446;8.576;2023-03-14T10:52:49;98512.69;;;15.24;57.33
38227;BME280;24026;49.446;8.576;2023-03-14T10:55:12;98525.13;;;15.20;57.74
38227;BME280;24026;49.446;8.576;2023-03-14T10:57:41;98518.69;;;15.21;57.20
38227;BME280;24026;49.446;8.576;2023-03-14T11:00:01;98521.81;;;15.23;57.17
38227;BME280;24026;49.446;8.576;2023-03-14T11:02:49;98520.56;;;15.21;57.12
38227;BME280;24026;49.446;8.576;2023-03-14T11:07:49;98523.72;;;15.14;57.16
38227;BME280;24026;49.446;8.576;2023-03-14T11:10:24;98525.78;;;15.17;57.36
38227;BME280;24026;49.446;8.576;2023-03-14T11:20:59;98534.72;;;15.21;57.60
38227;BME280;24026;49.446;8.576;2023-03-14T11:28:39;98542.78;;;15.12;58.57
38227;BME280;24026;49.446;8.576;2023-03-14T11:31:26;98539.13;;;15.08;58.68
38227;BME280;24026;49.446;8.576;2023-03-14T11:34:11;98547.47;;;15.07;58.61
38227;BME280;24026;49.446;8.576;2023-03-14T11:36:44;98550.66;;;15.09;58.41
38227;BME280;24026;49.446;8.576;2023-03-14T11:39:17;98559.44;;;15.09;58.70
38227;BME280;24026;49.446;8.576;2023-03-14T11:41:40;98558.38;;;15.10;58.73
38227;BME280;24026;49.446;8.576;2023-03-14T11:44:04;98563.22;;;15.08;58.76
38227;BME280;24026;49.446;8.576;2023-03-14T11:46:41;98579.13;;;15.05;58.84
38227;BME280;24026;49.446;8.576;2023-03-14T11:49:05;98582.56;;;14.96;59.05
38227;BME280;24026;49.446;8.576;2023-03-14T11:51:36;98596.59;;;15.02;59.04
38227;BME280;24026;49.446;8.576;2023-03-14T11:54:03;98602.09;;;15.06;58.71
38227;BME280;24026;49.446;8.576;2023-03-14T11:56:53;98618.31;;;15.00;58.84
38227;BME280;24026;49.446;8.576;2023-03-14T11:59:19;98620.38;;;15.04;58.76
38227;BME280;24026;49.446;8.576;2023-03-14T12:02:09;98630.56;;;15.01;59.12
38227;BME280;24026;49.446;8.576;2023-03-14T12:07:15;98657.16;;;15.07;59.19
38227;BME280;24026;49.446;8.576;2023-03-14T12:09:38;98671.03;;;15.09;58.78
38227;BME280;24026;49.446;8.576;2023-03-14T12:12:01;98685.19;;;15.09;58.40
38227;BME280;24026;49.446;8.576;2023-03-14T12:14:27;98686.28;;;15.08;58.52
38227;BME280;24026;49.446;8.576;2023-03-14T12:16:48;98699.97;;;15.07;58.24
38227;BME280;24026;49.446;8.576;2023-03-14T12:19:26;98718.38;;;14.99;58.57
38227;BME280;24026;49.446;8.576;2023-03-14T12:21:50;98732.88;;;15.07;58.09
38227;BME280;24026;49.446;8.576;2023-03-14T12:24:18;98719.69;;;15.11;57.80
38227;BME280;24026;49.446;8.576;2023-03-14T12:26:59;98745.47;;;15.07;57.72
38227;BME280;24026;49.446;8.576;2023-03-14T12:29:21;98754.00;;;15.09;57.67
38227;BME280;24026;49.446;8.576;2023-03-14T12:32:21;98757.44;;;15.00;58.54
38227;BME280;24026;49.446;8.576;2023-03-14T12:34:43;98764.84;;;15.04;58.00
38227;BME280;24026;49.446;8.576;2023-03-14T12:39:40;98785.94;;;15.05;57.48
38227;BME280;24026;49.446;8.576;2023-03-14T12:42:20;98783.88;;;15.02;57.70
38227;BME280;24026;49.446;8.576;2023-03-14T12:49:53;98838.63;;;15.05;57.41
38227;BME280;24026;49.446;8.576;2023-03-14T12:52:22;98834.03;;;14.96;57.60
38227;BME280;24026;49.446;8.576;2023-03-14T13:00:11;98870.88;;;14.99;56.50
38227;BME280;24026;49.446;8.576;2023-03-14T13:02:43;98895.94;;;15.04;56.83
38227;BME280;24026;49.446;8.576;2023-03-14T13:05:13;98898.31;;;15.05;57.16
38227;BME280;24026;49.446;8.576;2023-03-14T13:12:31;98934.22;;;15.13;56.79
38227;BME280;24026;49.446;8.576;2023-03-14T13:14:57;98943.81;;;15.14;56.93
38227;BME280;24026;49.446;8.576;2023-03-14T13:17:34;98937.50;;;15.10;57.13
38227;BME280;24026;49.446;8.576;2023-03-14T13:20:02;98949.19;;;15.14;56.70
38227;BME280;24026;49.446;8.576;2023-03-14T13:22:27;98960.66;;;15.14;56.97
38227;BME280;24026;49.446;8.576;2023-03-14T13:24:49;98974.53;;;15.16;56.28